Mathews, Alabama
Current Conditions -  °F | °C
As of 5:58 AM on Friday 28 Nov 2014 (Local Time) from KMXF Reporting Station
Clear Clear  
Wind Chill: 29°   Ceiling: Unl
Heat Index: 33°   Visibility: 10mi
Dew Point: 28°   Wind: 5mph
Humidity: 82%   Direction: 20°NNE
Pressure: 30.42"   Gusts: NA
Location:  32.27°N, 86°W
Report Text: KMXF 281158Z AUTO 02004KT 10SM CLR 01/M02 A3042 RMK AO2 SLP305 T00071020 10024 21011 53001
Loading
Personal Weather Stations






























Interactive Weather Map New forecast layout! Learn more

10-Day Weather Forecast

Advertisements
Track Severe Weather on mobile